createdAt,value
2023-08-16T00:01:49.404Z,25.29
2023-08-16T00:04:17.834Z,25.19
2023-08-16T00:06:45.933Z,25.09
2023-08-16T00:09:14.328Z,25.15
2023-08-16T00:11:44.073Z,25.16
2023-08-16T00:14:12.065Z,25.15
2023-08-16T00:16:41.319Z,25.19
2023-08-16T00:19:09.626Z,25.24
2023-08-16T00:21:37.838Z,25.23
2023-08-16T00:24:07.438Z,25.27
2023-08-16T00:26:35.828Z,25.20
2023-08-16T00:29:05.640Z,25.11
2023-08-16T00:31:33.626Z,25.00
2023-08-16T00:34:01.944Z,25.00
2023-08-16T00:36:29.991Z,24.81
2023-08-16T00:38:57.985Z,24.73
2023-08-16T00:41:26.184Z,24.71
2023-08-16T00:43:54.149Z,24.71
2023-08-16T00:46:24.137Z,24.71
2023-08-16T00:48:52.754Z,24.68
2023-08-16T00:51:20.954Z,24.66
2023-08-16T00:53:49.110Z,24.61
2023-08-16T00:56:18.874Z,24.59
2023-08-16T00:58:46.990Z,24.60
2023-08-16T01:01:15.389Z,24.58
2023-08-16T01:03:45.544Z,24.55
2023-08-16T01:06:13.783Z,24.52
2023-08-16T01:08:42.288Z,24.37
2023-08-16T01:11:18.432Z,24.26
2023-08-16T01:13:56.647Z,24.24
2023-08-16T01:16:28.091Z,24.25
2023-08-16T01:18:58.427Z,24.26
2023-08-16T01:21:28.241Z,24.30
2023-08-16T01:24:07.069Z,24.35
2023-08-16T01:26:39.648Z,24.44
2023-08-16T01:29:09.680Z,24.45
2023-08-16T01:31:39.700Z,24.44
2023-08-16T01:34:08.986Z,24.43
2023-08-16T01:36:37.686Z,24.51
2023-08-16T01:39:06.063Z,24.55
2023-08-16T01:41:41.063Z,24.55
2023-08-16T01:44:10.685Z,24.58
2023-08-16T01:46:41.115Z,24.62
2023-08-16T01:49:09.887Z,24.80
2023-08-16T01:51:38.635Z,24.84
2023-08-16T01:54:07.823Z,24.77
2023-08-16T01:56:36.071Z,24.93
2023-08-16T01:59:05.765Z,24.98
2023-08-16T02:01:33.806Z,25.00
2023-08-16T02:04:02.152Z,24.93
2023-08-16T02:06:32.060Z,24.91
2023-08-16T02:09:00.218Z,24.99
2023-08-16T02:11:28.486Z,25.00
2023-08-16T02:13:56.424Z,25.00
2023-08-16T02:16:30.180Z,24.93
2023-08-16T02:18:58.220Z,24.91
2023-08-16T02:21:26.784Z,24.87
2023-08-16T02:23:56.805Z,24.94
2023-08-16T02:26:24.812Z,24.92
2023-08-16T02:28:53.399Z,24.93
2023-08-16T02:31:21.461Z,24.95
2023-08-16T02:33:50.914Z,24.91
2023-08-16T02:36:19.171Z,25.14
2023-08-16T02:38:47.190Z,25.16
2023-08-16T02:41:15.183Z,25.17
2023-08-16T02:43:44.878Z,25.15
2023-08-16T02:46:12.903Z,25.09
2023-08-16T02:48:40.975Z,25.12
2023-08-16T02:51:10.601Z,24.98
2023-08-16T02:53:38.640Z,24.98
2023-08-16T02:56:06.613Z,24.91
2023-08-16T02:58:38.023Z,24.85
2023-08-16T03:01:06.153Z,25.11
2023-08-16T03:03:34.450Z,25.12
2023-08-16T03:06:02.741Z,24.92
2023-08-16T03:08:33.601Z,24.94
2023-08-16T03:11:02.783Z,25.04
2023-08-16T03:13:31.313Z,25.12
2023-08-16T03:15:59.280Z,25.07
2023-08-16T03:18:28.926Z,25.10
2023-08-16T03:20:57.724Z,25.12
2023-08-16T03:23:25.989Z,25.10
2023-08-16T03:25:55.925Z,25.08
2023-08-16T03:28:25.112Z,25.18
2023-08-16T03:30:53.286Z,25.17
2023-08-16T03:33:21.664Z,25.17
2023-08-16T03:35:50.140Z,25.16
2023-08-16T03:38:18.111Z,25.19
2023-08-16T03:40:46.496Z,25.22
2023-08-16T03:43:15.788Z,25.24
2023-08-16T03:45:44.887Z,25.31
2023-08-16T03:48:13.373Z,25.28
2023-08-16T03:50:41.454Z,25.32
2023-08-16T03:53:09.448Z,25.35
2023-08-16T03:55:37.643Z,25.36
2023-08-16T03:58:05.906Z,25.36
2023-08-16T04:00:35.174Z,25.34
2023-08-16T04:03:05.331Z,25.37
2023-08-16T04:05:34.443Z,25.38
2023-08-16T04:08:02.413Z,25.40
2023-08-16T04:10:30.850Z,25.43
2023-08-16T04:12:58.839Z,25.43
2023-08-16T04:15:26.921Z,25.45
2023-08-16T04:17:57.676Z,25.45
2023-08-16T04:20:26.937Z,25.46
2023-08-16T04:22:55.416Z,25.49
2023-08-16T04:25:23.561Z,25.46
2023-08-16T04:27:51.899Z,25.45
2023-08-16T04:30:20.247Z,25.37
2023-08-16T04:32:49.699Z,25.30
2023-08-16T04:35:19.459Z,25.26
2023-08-16T04:37:48.133Z,25.25
2023-08-16T04:40:16.293Z,25.28
2023-08-16T04:42:44.363Z,25.32
2023-08-16T04:45:12.993Z,25.36
2023-08-16T04:47:41.024Z,25.35
2023-08-16T04:50:09.715Z,25.35
2023-08-16T04:52:39.621Z,25.38
2023-08-16T04:55:08.439Z,25.49
2023-08-16T04:57:36.796Z,25.47
2023-08-16T05:00:08.789Z,25.58
2023-08-16T05:02:38.319Z,25.52
2023-08-16T05:05:07.425Z,25.62
2023-08-16T05:07:35.587Z,25.55
2023-08-16T05:10:06.020Z,25.46
2023-08-16T05:12:34.320Z,25.59
2023-08-16T05:15:02.428Z,25.68
2023-08-16T05:17:32.080Z,25.70
2023-08-16T05:20:00.807Z,25.61
2023-08-16T05:22:28.960Z,25.59
2023-08-16T05:24:56.938Z,25.47
2023-08-16T05:27:26.618Z,25.58
2023-08-16T05:29:54.678Z,25.43
2023-08-16T05:32:23.638Z,25.52
2023-08-16T05:34:53.430Z,25.61
2023-08-16T05:37:21.964Z,25.60
2023-08-16T05:39:50.402Z,25.64
2023-08-16T05:42:18.672Z,25.57
2023-08-16T05:44:48.266Z,25.54
2023-08-16T05:47:16.356Z,25.57
2023-08-16T05:49:44.699Z,25.66
2023-08-16T05:52:12.675Z,25.64
2023-08-16T05:54:40.757Z,25.71
2023-08-16T05:57:09.037Z,25.81
2023-08-16T05:59:37.038Z,25.84
2023-08-16T06:02:07.898Z,25.97
2023-08-16T06:04:36.357Z,25.99
2023-08-16T06:07:05.370Z,26.09
2023-08-16T06:09:34.894Z,26.03
2023-08-16T06:12:03.153Z,26.16
2023-08-16T06:14:31.190Z,26.14
2023-08-16T06:16:59.175Z,26.34
2023-08-16T06:19:28.791Z,26.33
2023-08-16T06:21:56.851Z,26.27
2023-08-16T06:24:24.887Z,26.27
2023-08-16T06:26:53.185Z,26.27
2023-08-16T06:29:21.179Z,26.21
2023-08-16T06:31:49.451Z,26.29
2023-08-16T06:34:18.114Z,26.36
2023-08-16T06:36:47.914Z,26.45
2023-08-16T06:39:15.995Z,26.55
2023-08-16T06:41:44.741Z,26.58
2023-08-16T06:44:12.997Z,26.69
2023-08-16T06:46:40.978Z,26.81
2023-08-16T06:49:09.528Z,26.96
2023-08-16T06:51:37.585Z,27.06
2023-08-16T06:54:07.128Z,27.12
2023-08-16T06:56:36.901Z,27.25
2023-08-16T06:59:06.419Z,27.36
2023-08-16T07:01:34.417Z,27.45
2023-08-16T07:04:03.830Z,27.42
2023-08-16T07:06:32.663Z,27.66
2023-08-16T07:09:01.167Z,27.81
2023-08-16T07:11:30.884Z,27.87
2023-08-16T07:14:00.652Z,27.93
2023-08-16T07:16:28.896Z,27.96
2023-08-16T07:18:57.189Z,27.93
2023-08-16T07:21:25.174Z,28.12
2023-08-16T07:23:53.141Z,28.09
2023-08-16T07:26:21.383Z,28.25
2023-08-16T07:28:50.717Z,28.31
2023-08-16T07:31:19.000Z,28.51
2023-08-16T07:33:47.265Z,28.62
2023-08-16T07:36:15.213Z,28.72
2023-08-16T07:38:43.198Z,28.81
2023-08-16T07:41:11.497Z,28.85
2023-08-16T07:43:39.488Z,28.78
2023-08-16T07:46:08.964Z,28.63
2023-08-16T07:48:37.274Z,28.63
2023-08-16T07:51:05.701Z,28.66
2023-08-16T07:53:33.964Z,28.65
2023-08-16T07:56:02.214Z,28.57
2023-08-16T07:58:30.516Z,28.60
2023-08-16T08:00:58.465Z,28.66
2023-08-16T08:03:28.031Z,28.67
2023-08-16T08:06:02.625Z,28.84
2023-08-16T08:08:31.044Z,29.03
2023-08-16T08:10:59.101Z,29.11
2023-08-16T08:13:27.398Z,28.91
2023-08-16T08:15:56.345Z,28.84
2023-08-16T08:18:24.594Z,29.02
2023-08-16T08:20:54.098Z,29.12
2023-08-16T08:23:22.315Z,29.15
2023-08-16T08:25:50.508Z,29.24
2023-08-16T08:28:18.730Z,29.34
2023-08-16T08:30:46.958Z,29.33
2023-08-16T08:33:15.003Z,29.36
2023-08-16T08:35:44.701Z,29.27
2023-08-16T08:38:14.686Z,29.51
2023-08-16T08:40:42.786Z,29.74
2023-08-16T08:43:12.295Z,29.78
2023-08-16T08:45:43.240Z,29.73
2023-08-16T08:48:13.699Z,29.87
2023-08-16T08:50:43.954Z,29.93
2023-08-16T08:53:12.804Z,30.02
2023-08-16T08:55:46.443Z,30.05
2023-08-16T08:58:18.704Z,30.31
2023-08-16T09:00:47.744Z,30.78
2023-08-16T09:03:19.894Z,31.07
2023-08-16T09:05:49.248Z,30.90
2023-08-16T09:08:17.900Z,30.82
2023-08-16T09:10:47.777Z,30.88
2023-08-16T09:13:17.270Z,31.10
2023-08-16T09:15:45.614Z,31.43
2023-08-16T09:18:15.379Z,31.65
2023-08-16T09:20:44.371Z,31.65
2023-08-16T09:23:14.642Z,31.48
2023-08-16T09:25:43.100Z,31.48
2023-08-16T09:28:16.316Z,31.41
2023-08-16T09:30:45.534Z,31.42
2023-08-16T09:33:15.529Z,31.65
2023-08-16T09:35:50.028Z,31.74
2023-08-16T09:38:37.928Z,31.95
2023-08-16T09:41:14.542Z,32.11
2023-08-16T09:43:44.511Z,32.12
2023-08-16T09:46:13.913Z,31.92
2023-08-16T09:49:10.614Z,31.82
2023-08-16T09:54:02.743Z,32.01
2023-08-16T09:56:38.464Z,32.13
2023-08-16T09:59:37.033Z,32.28
2023-08-16T10:09:36.961Z,32.33
2023-08-16T10:12:07.694Z,32.25
2023-08-16T10:14:39.242Z,32.27
2023-08-16T10:17:10.310Z,32.56
2023-08-16T10:19:45.376Z,32.77
2023-08-16T10:22:32.850Z,32.86
2023-08-16T10:25:07.698Z,32.91
2023-08-16T10:27:39.188Z,33.02
2023-08-16T10:30:14.815Z,33.05
2023-08-16T10:32:45.453Z,33.02
2023-08-16T10:35:15.219Z,32.90
2023-08-16T10:37:47.767Z,32.70
2023-08-16T10:42:54.705Z,32.61
2023-08-16T10:48:11.493Z,32.36
2023-08-16T10:50:40.111Z,32.27
2023-08-16T10:53:09.438Z,32.27
2023-08-16T10:55:37.884Z,32.35
2023-08-16T10:58:05.911Z,32.34
2023-08-16T11:00:43.269Z,32.34
2023-08-16T11:03:20.479Z,32.41
2023-08-16T11:05:50.142Z,32.44
2023-08-16T11:08:18.391Z,32.41
2023-08-16T11:10:46.690Z,32.27
2023-08-16T11:13:15.175Z,32.22
2023-08-16T11:15:44.744Z,32.39
2023-08-16T11:18:15.764Z,32.47
2023-08-16T11:20:45.368Z,32.60
2023-08-16T11:23:13.583Z,32.94
2023-08-16T11:25:41.949Z,33.24
2023-08-16T11:28:10.358Z,33.44
2023-08-16T11:30:38.413Z,33.45
2023-08-16T11:33:16.435Z,33.22
2023-08-16T11:35:47.202Z,33.33
2023-08-16T11:38:16.575Z,33.29
2023-08-16T11:40:48.472Z,33.33
2023-08-16T11:43:16.843Z,33.26
2023-08-16T11:45:45.176Z,33.24
2023-08-16T11:48:16.213Z,33.07
2023-08-16T11:50:44.637Z,32.96
2023-08-16T11:53:18.404Z,32.79
2023-08-16T11:55:57.932Z,32.62
2023-08-16T11:58:26.756Z,32.65
2023-08-16T12:00:55.663Z,32.80
2023-08-16T12:03:25.515Z,32.88
2023-08-16T12:05:53.767Z,32.90
2023-08-16T12:08:22.801Z,32.84
2023-08-16T12:10:55.516Z,32.71
2023-08-16T12:13:25.344Z,32.70
2023-08-16T12:15:53.636Z,32.68
2023-08-16T12:18:23.944Z,32.77
2023-08-16T12:20:54.330Z,32.79
2023-08-16T12:23:22.818Z,33.00
2023-08-16T12:25:51.610Z,33.26
2023-08-16T12:28:20.380Z,33.60
2023-08-16T12:30:48.682Z,33.87
2023-08-16T12:33:17.226Z,34.15
2023-08-16T12:35:45.438Z,34.38
2023-08-16T12:38:15.115Z,34.21
2023-08-16T12:40:45.974Z,34.15
2023-08-16T12:45:45.396Z,34.16
2023-08-16T12:48:13.568Z,34.13
2023-08-16T12:50:42.071Z,34.23
2023-08-16T13:00:48.347Z,34.16
2023-08-16T13:10:56.831Z,33.80
2023-08-16T13:16:08.530Z,33.63
2023-08-16T13:21:19.492Z,33.50
2023-08-16T13:24:23.411Z,33.44
2023-08-16T13:27:00.258Z,33.51
2023-08-16T13:29:30.559Z,33.13
2023-08-16T13:32:05.821Z,33.22
2023-08-16T13:39:43.293Z,33.81
2023-08-16T13:45:16.239Z,33.92
2023-08-16T13:47:33.841Z,33.87
2023-08-16T13:50:01.912Z,33.97
2023-08-16T13:52:30.309Z,33.89
2023-08-16T13:54:58.835Z,33.90
2023-08-16T13:57:28.519Z,33.94
2023-08-16T13:59:56.789Z,33.97
2023-08-16T14:02:25.431Z,34.15
2023-08-16T14:04:54.025Z,34.24
2023-08-16T14:07:22.013Z,34.44
2023-08-16T14:09:50.073Z,34.32
2023-08-16T14:12:18.527Z,34.41
2023-08-16T14:14:47.922Z,34.56
2023-08-16T14:17:16.041Z,34.88
2023-08-16T14:19:45.568Z,35.13
2023-08-16T14:22:13.569Z,35.22
2023-08-16T14:24:41.648Z,35.19
2023-08-16T14:27:09.937Z,35.32
2023-08-16T14:29:38.034Z,35.52
2023-08-16T14:32:07.884Z,35.72
2023-08-16T14:34:36.198Z,35.89
2023-08-16T14:37:04.242Z,36.05
2023-08-16T14:39:32.654Z,36.19
2023-08-16T14:42:01.006Z,36.22
2023-08-16T14:44:29.589Z,36.35
2023-08-16T14:46:57.632Z,36.09
2023-08-16T14:49:27.332Z,36.10
2023-08-16T14:51:55.403Z,36.18
2023-08-16T14:54:23.488Z,36.20
2023-08-16T14:56:51.853Z,36.06
2023-08-16T14:59:19.889Z,36.17
2023-08-16T15:01:47.960Z,36.25
2023-08-16T15:04:16.301Z,36.46
2023-08-16T15:06:46.046Z,36.53
2023-08-16T15:09:14.751Z,36.53
2023-08-16T15:11:43.118Z,36.45
2023-08-16T15:14:11.434Z,36.48
2023-08-16T15:16:39.557Z,36.51
2023-08-16T15:19:07.842Z,36.75
2023-08-16T15:21:38.661Z,37.17
2023-08-16T15:24:08.747Z,37.39
2023-08-16T15:26:37.152Z,37.94
2023-08-16T15:29:05.724Z,38.58
2023-08-16T15:31:33.832Z,38.70
2023-08-16T15:34:02.249Z,38.95
2023-08-16T15:36:32.552Z,39.02
2023-08-16T15:39:00.620Z,39.35
2023-08-16T15:41:33.783Z,39.49
2023-08-16T15:44:03.339Z,39.84
2023-08-16T15:46:32.541Z,40.09
2023-08-16T15:49:00.636Z,40.36
2023-08-16T15:51:28.817Z,40.35
2023-08-16T15:53:57.087Z,40.21
2023-08-16T15:56:25.300Z,40.31
2023-08-16T15:58:54.715Z,40.24
2023-08-16T16:01:25.744Z,40.09
2023-08-16T16:03:54.043Z,39.40
2023-08-16T16:06:22.111Z,38.25
2023-08-16T16:08:50.168Z,37.95
2023-08-16T16:11:23.013Z,38.67
2023-08-16T16:13:51.491Z,39.38
2023-08-16T16:16:21.475Z,39.81
2023-08-16T16:18:49.601Z,39.83
2023-08-16T16:21:17.624Z,39.83
2023-08-16T16:23:45.974Z,39.59
2023-08-16T16:26:13.996Z,39.35
2023-08-16T16:28:42.166Z,39.51
2023-08-16T16:31:10.584Z,39.67
2023-08-16T16:33:39.939Z,39.59
2023-08-16T16:36:08.500Z,39.60
2023-08-16T16:38:36.849Z,39.56
2023-08-16T16:41:04.919Z,39.42
2023-08-16T16:43:32.999Z,39.42
2023-08-16T16:46:01.852Z,39.38
2023-08-16T16:48:29.877Z,38.89
2023-08-16T16:50:59.499Z,37.98
2023-08-16T16:53:27.803Z,37.22
2023-08-16T16:55:55.875Z,36.60
2023-08-16T16:58:23.914Z,36.01
2023-08-16T17:00:52.245Z,35.56
2023-08-16T17:03:20.338Z,35.07
2023-08-16T17:05:48.410Z,34.81
2023-08-16T17:08:18.023Z,34.75
2023-08-16T17:10:46.114Z,34.54
2023-08-16T17:13:15.245Z,34.18
2023-08-16T17:15:43.603Z,34.05
2023-08-16T17:18:11.752Z,34.11
2023-08-16T17:20:39.806Z,33.97
2023-08-16T17:23:08.188Z,33.94
2023-08-16T17:25:38.250Z,33.99
2023-08-16T17:28:06.549Z,33.88
2023-08-16T17:30:36.120Z,34.09
2023-08-16T17:33:04.753Z,34.65
2023-08-16T17:35:33.313Z,35.17
2023-08-16T17:38:01.639Z,35.12
2023-08-16T17:40:29.800Z,34.75
2023-08-16T17:42:59.551Z,34.38
2023-08-16T17:45:27.897Z,33.93
2023-08-16T17:47:55.976Z,33.70
2023-08-16T17:50:24.168Z,33.61
2023-08-16T17:52:52.499Z,33.32
2023-08-16T17:55:20.536Z,33.07
2023-08-16T17:57:49.144Z,32.69
2023-08-16T18:00:19.296Z,32.53
2023-08-16T18:02:47.703Z,32.25
2023-08-16T18:05:16.383Z,32.09
2023-08-16T18:07:44.591Z,31.95
2023-08-16T18:10:12.976Z,31.73
2023-08-16T18:12:41.015Z,31.57
2023-08-16T18:15:10.255Z,31.42
2023-08-16T18:17:40.064Z,31.39
2023-08-16T18:20:10.014Z,31.23
2023-08-16T18:22:38.548Z,31.19
2023-08-16T18:25:06.977Z,30.93
2023-08-16T18:27:35.165Z,30.79
2023-08-16T18:30:03.624Z,30.70
2023-08-16T18:32:31.769Z,30.62
2023-08-16T18:35:01.657Z,30.55
2023-08-16T18:37:32.438Z,30.44
2023-08-16T18:40:00.530Z,30.33
2023-08-16T18:42:28.641Z,30.29
2023-08-16T18:44:57.185Z,30.18
2023-08-16T18:47:25.554Z,30.09
2023-08-16T18:49:54.229Z,30.04
2023-08-16T18:52:23.966Z,29.95
2023-08-16T18:54:52.190Z,29.89
2023-08-16T18:57:21.300Z,29.90
2023-08-16T18:59:49.861Z,29.80
2023-08-16T19:02:17.887Z,29.74
2023-08-16T19:04:46.045Z,29.64
2023-08-16T19:07:14.401Z,29.46
2023-08-16T19:09:43.823Z,29.39
2023-08-16T19:12:13.911Z,29.32
2023-08-16T19:14:42.756Z,29.23
2023-08-16T19:17:10.788Z,29.15
2023-08-16T19:19:38.912Z,29.05
2023-08-16T19:22:07.243Z,28.99
2023-08-16T19:24:35.322Z,28.79
2023-08-16T19:27:04.828Z,28.69
2023-08-16T19:29:33.205Z,28.80
2023-08-16T19:32:01.717Z,28.79
2023-08-16T19:34:29.798Z,28.74
2023-08-16T19:36:58.123Z,28.70
2023-08-16T19:39:26.431Z,28.69
2023-08-16T19:41:54.440Z,28.66
2023-08-16T19:44:24.265Z,28.68
2023-08-16T19:46:52.298Z,28.55
2023-08-16T19:49:21.145Z,28.50
2023-08-16T19:51:49.591Z,28.46
2023-08-16T19:54:17.672Z,28.54
2023-08-16T19:56:45.732Z,28.51
2023-08-16T19:59:14.092Z,28.52
2023-08-16T20:01:45.240Z,28.43
2023-08-16T20:04:13.795Z,28.37
2023-08-16T20:06:42.756Z,28.34
2023-08-16T20:09:11.141Z,28.29
2023-08-16T20:11:39.554Z,28.27
2023-08-16T20:14:07.654Z,28.11
2023-08-16T20:16:37.739Z,28.20
2023-08-16T20:19:09.091Z,27.97
2023-08-16T20:21:37.140Z,28.15
2023-08-16T20:24:06.171Z,28.18
2023-08-16T20:26:34.255Z,28.10
2023-08-16T20:29:02.382Z,28.00
2023-08-16T20:31:30.782Z,27.93
2023-08-16T20:33:58.862Z,27.90
2023-08-16T20:36:28.355Z,27.93
2023-08-16T20:38:56.675Z,27.87
2023-08-16T20:41:26.790Z,27.71
2023-08-16T20:43:54.819Z,27.64
2023-08-16T20:46:35.687Z,27.66
2023-08-16T20:49:08.229Z,27.67
2023-08-16T20:51:38.231Z,27.63
2023-08-16T20:54:14.125Z,27.59
2023-08-16T20:56:43.113Z,27.54
2023-08-16T20:59:11.202Z,27.50
2023-08-16T21:01:43.548Z,27.46
2023-08-16T21:04:13.271Z,27.38
2023-08-16T21:06:42.713Z,27.39
2023-08-16T21:09:10.732Z,27.27
2023-08-16T21:11:39.106Z,27.29
2023-08-16T21:14:09.311Z,27.30
2023-08-16T21:16:37.436Z,27.37
2023-08-16T21:19:05.933Z,27.24
2023-08-16T21:21:34.948Z,27.23
2023-08-16T21:24:04.697Z,27.21
2023-08-16T21:26:33.104Z,27.24
2023-08-16T21:29:01.774Z,27.18
2023-08-16T21:31:29.882Z,27.19
2023-08-16T21:33:58.208Z,27.16
2023-08-16T21:36:26.447Z,27.09
2023-08-16T21:38:55.006Z,27.10
2023-08-16T21:41:24.706Z,27.20
2023-08-16T21:43:52.763Z,27.08
2023-08-16T21:46:20.840Z,27.05
2023-08-16T21:48:49.491Z,27.02
2023-08-16T21:51:17.696Z,27.02
2023-08-16T21:53:45.681Z,27.08
2023-08-16T21:56:14.422Z,27.00
2023-08-16T21:58:43.866Z,26.87
2023-08-16T22:01:11.992Z,26.96
2023-08-16T22:03:40.324Z,26.91
2023-08-16T22:06:08.380Z,26.80
2023-08-16T22:08:36.453Z,26.68
2023-08-16T22:11:06.465Z,26.71
2023-08-16T22:13:35.276Z,26.66
2023-08-16T22:16:04.893Z,26.58
2023-08-16T22:18:33.184Z,26.58
2023-08-16T22:21:03.868Z,26.57
2023-08-16T22:23:33.478Z,26.64
2023-08-16T22:26:01.594Z,26.64
2023-08-16T22:28:29.727Z,26.41
2023-08-16T22:30:58.005Z,26.28
2023-08-16T22:33:27.440Z,26.24
2023-08-16T22:35:55.524Z,26.16
2023-08-16T22:38:24.632Z,26.13
2023-08-16T22:40:52.994Z,26.11
2023-08-16T22:43:21.009Z,26.11
2023-08-16T22:45:49.584Z,26.10
2023-08-16T22:48:17.807Z,26.05
2023-08-16T22:50:47.162Z,26.01
2023-08-16T22:53:15.488Z,26.02
2023-08-16T22:55:43.741Z,26.01
2023-08-16T22:58:11.839Z,26.01
2023-08-16T23:00:40.547Z,25.99
2023-08-16T23:03:09.491Z,26.01
2023-08-16T23:05:37.611Z,26.03
2023-08-16T23:08:08.063Z,26.05
2023-08-16T23:10:36.126Z,25.99
2023-08-16T23:13:24.227Z,26.00
2023-08-16T23:15:52.438Z,25.92
2023-08-16T23:18:20.914Z,26.00
2023-08-16T23:20:48.975Z,25.96
2023-08-16T23:23:18.784Z,25.94
2023-08-16T23:25:47.004Z,25.90
2023-08-16T23:28:15.062Z,25.85
2023-08-16T23:30:43.390Z,25.76
2023-08-16T23:33:11.399Z,25.67
2023-08-16T23:35:39.669Z,25.58
2023-08-16T23:38:08.013Z,25.56
2023-08-16T23:40:37.394Z,25.49
2023-08-16T23:43:05.844Z,25.46
2023-08-16T23:45:34.154Z,25.49
2023-08-16T23:48:03.007Z,25.54
2023-08-16T23:50:31.085Z,25.61
2023-08-16T23:52:59.386Z,25.65
2023-08-16T23:55:27.458Z,25.74
2023-08-16T23:57:56.884Z,25.83
